createdAt,value
2023-10-03T00:00:46.763Z,17.75
2023-10-03T00:03:18.916Z,17.89
2023-10-03T00:05:52.889Z,17.94
2023-10-03T00:08:24.697Z,17.87
2023-10-03T00:10:56.245Z,17.85
2023-10-03T00:13:27.962Z,17.85
2023-10-03T00:15:59.606Z,17.80
2023-10-03T00:18:32.840Z,17.78
2023-10-03T00:21:04.725Z,17.93
2023-10-03T00:23:36.386Z,17.98
2023-10-03T00:26:17.221Z,17.95
2023-10-03T00:28:49.591Z,17.90
2023-10-03T00:31:21.293Z,17.89
2023-10-03T00:33:52.817Z,17.82
2023-10-03T00:36:26.376Z,17.84
2023-10-03T00:38:57.958Z,17.78
2023-10-03T00:41:31.418Z,17.79
2023-10-03T00:44:05.663Z,17.81
2023-10-03T00:46:37.480Z,17.79
2023-10-03T00:49:12.495Z,17.78
2023-10-03T00:51:47.029Z,17.75
2023-10-03T00:54:19.907Z,17.77
2023-10-03T00:56:51.725Z,17.93
2023-10-03T00:59:24.449Z,17.93
2023-10-03T01:02:03.411Z,17.88
2023-10-03T01:04:37.083Z,17.79
2023-10-03T01:07:08.628Z,17.88
2023-10-03T01:09:40.695Z,17.97
2023-10-03T01:12:12.482Z,17.87
2023-10-03T01:14:44.450Z,17.87
2023-10-03T01:17:17.126Z,17.80
2023-10-03T01:19:50.421Z,17.62
2023-10-03T01:22:25.206Z,17.67
2023-10-03T01:24:56.959Z,17.67
2023-10-03T01:27:28.614Z,17.65
2023-10-03T01:30:00.448Z,17.68
2023-10-03T01:32:37.404Z,17.67
2023-10-03T01:35:13.222Z,17.67
2023-10-03T01:37:46.833Z,17.70
2023-10-03T01:40:19.303Z,17.65
2023-10-03T01:42:51.607Z,17.60
2023-10-03T01:45:25.239Z,17.54
2023-10-03T01:48:01.012Z,17.59
2023-10-03T01:50:35.334Z,17.61
2023-10-03T01:53:09.388Z,17.65
2023-10-03T01:55:40.924Z,17.63
2023-10-03T01:58:12.731Z,17.69
2023-10-03T02:00:44.403Z,17.74
2023-10-03T02:03:16.133Z,17.74
2023-10-03T02:05:49.803Z,17.72
2023-10-03T02:08:22.020Z,17.59
2023-10-03T02:10:54.651Z,17.50
2023-10-03T02:13:26.408Z,17.45
2023-10-03T02:16:00.193Z,17.38
2023-10-03T02:18:32.038Z,17.39
2023-10-03T02:21:06.434Z,17.33
2023-10-03T02:23:38.115Z,17.34
2023-10-03T02:26:13.801Z,17.41
2023-10-03T02:28:45.525Z,17.51
2023-10-03T02:31:17.245Z,17.39
2023-10-03T02:33:51.097Z,17.22
2023-10-03T02:36:22.671Z,17.20
2023-10-03T02:38:54.264Z,17.22
2023-10-03T02:41:26.119Z,17.16
2023-10-03T02:43:57.699Z,17.20
2023-10-03T02:46:31.455Z,17.18
2023-10-03T02:49:04.054Z,17.15
2023-10-03T02:51:35.800Z,17.19
2023-10-03T02:54:07.849Z,17.19
2023-10-03T02:56:39.434Z,17.08
2023-10-03T02:59:11.112Z,16.94
2023-10-03T03:01:43.324Z,16.95
2023-10-03T03:04:19.224Z,17.01
2023-10-03T03:06:52.620Z,17.01
2023-10-03T03:09:25.380Z,16.99
2023-10-03T03:11:59.826Z,16.95
2023-10-03T03:14:30.147Z,16.83
2023-10-03T03:17:10.679Z,16.70
2023-10-03T03:19:43.041Z,16.78
2023-10-03T03:22:16.978Z,16.78
2023-10-03T03:24:53.183Z,16.76
2023-10-03T03:27:27.879Z,16.74
2023-10-03T03:30:35.532Z,16.68
2023-10-03T03:33:19.199Z,16.65
2023-10-03T03:36:00.741Z,16.64
2023-10-03T03:38:45.331Z,16.55
2023-10-03T03:41:27.747Z,16.53
2023-10-03T03:44:16.467Z,16.43
2023-10-03T03:46:48.335Z,16.37
2023-10-03T03:49:22.362Z,16.32
2023-10-03T03:51:53.969Z,16.24
2023-10-03T03:54:25.650Z,16.07
2023-10-03T03:56:57.520Z,16.11
2023-10-03T03:59:29.450Z,16.15
2023-10-03T04:02:01.512Z,16.06
2023-10-03T04:04:34.435Z,16.20
2023-10-03T04:07:05.977Z,16.22
2023-10-03T04:09:37.659Z,16.10
2023-10-03T04:12:09.920Z,16.03
2023-10-03T04:14:41.674Z,16.02
2023-10-03T04:17:17.226Z,16.04
2023-10-03T04:19:49.140Z,16.13
2023-10-03T04:22:20.827Z,16.17
2023-10-03T04:24:52.543Z,16.15
2023-10-03T04:27:27.104Z,16.28
2023-10-03T04:29:57.153Z,16.30
2023-10-03T04:32:28.914Z,16.17
2023-10-03T04:35:00.700Z,16.04
2023-10-03T04:37:32.699Z,16.08
2023-10-03T04:40:07.899Z,16.10
2023-10-03T04:42:42.424Z,16.06
2023-10-03T04:45:15.706Z,16.03
2023-10-03T04:47:48.667Z,16.08
2023-10-03T04:50:26.189Z,16.01
2023-10-03T04:52:58.292Z,15.96
2023-10-03T04:55:30.194Z,15.89
2023-10-03T04:58:02.021Z,15.99
2023-10-03T05:00:33.650Z,15.96
2023-10-03T05:03:06.606Z,16.04
2023-10-03T05:05:39.158Z,16.01
2023-10-03T05:08:11.445Z,16.06
2023-10-03T05:10:43.364Z,16.20
2023-10-03T05:13:15.994Z,16.37
2023-10-03T05:15:47.550Z,16.61
2023-10-03T05:18:19.195Z,16.72
2023-10-03T05:20:51.211Z,16.85
2023-10-03T05:23:23.087Z,17.08
2023-10-03T05:25:54.916Z,17.44
2023-10-03T05:28:27.082Z,17.84
2023-10-03T05:31:02.945Z,18.15
2023-10-03T05:33:34.749Z,18.60
2023-10-03T05:36:07.125Z,18.84
2023-10-03T05:38:41.691Z,19.00
2023-10-03T05:41:19.642Z,19.24
2023-10-03T05:43:51.499Z,19.49
2023-10-03T05:46:23.487Z,19.76
2023-10-03T05:48:55.454Z,20.08
2023-10-03T05:51:27.856Z,20.37
2023-10-03T05:54:00.575Z,20.61
2023-10-03T05:56:32.649Z,20.87
2023-10-03T05:59:04.633Z,21.24
2023-10-03T06:01:36.879Z,21.41
2023-10-03T06:04:09.900Z,21.58
2023-10-03T06:06:45.690Z,21.80
2023-10-03T06:09:17.645Z,21.95
2023-10-03T06:11:50.419Z,22.04
2023-10-03T06:14:22.729Z,22.06
2023-10-03T06:16:54.524Z,22.12
2023-10-03T06:19:27.757Z,22.13
2023-10-03T06:21:59.878Z,22.27
2023-10-03T06:24:33.506Z,22.41
2023-10-03T06:27:09.733Z,22.52
2023-10-03T06:29:42.717Z,22.51
2023-10-03T06:32:14.677Z,22.57
2023-10-03T06:34:46.571Z,22.55
2023-10-03T06:37:19.502Z,22.53
2023-10-03T06:39:51.719Z,22.57
2023-10-03T06:42:24.625Z,22.65
2023-10-03T06:44:58.855Z,22.76
2023-10-03T06:47:31.573Z,22.83
2023-10-03T06:50:05.118Z,22.84
2023-10-03T06:52:37.920Z,22.88
2023-10-03T06:55:16.955Z,22.93
2023-10-03T06:57:52.971Z,23.05
2023-10-03T07:00:25.677Z,22.90
2023-10-03T07:02:58.415Z,22.83
2023-10-03T07:05:31.056Z,22.95
2023-10-03T07:08:05.119Z,23.09
2023-10-03T07:10:37.436Z,23.17
2023-10-03T07:13:10.241Z,23.30
2023-10-03T07:15:44.154Z,23.30
2023-10-03T07:18:16.741Z,23.27
2023-10-03T07:20:48.732Z,23.29
2023-10-03T07:23:21.362Z,23.36
2023-10-03T07:25:54.604Z,23.51
2023-10-03T07:28:33.275Z,23.68
2023-10-03T07:31:16.607Z,23.78
2023-10-03T07:33:49.458Z,23.82
2023-10-03T07:36:21.865Z,23.95
2023-10-03T07:38:54.005Z,23.98
2023-10-03T07:41:26.092Z,24.06
2023-10-03T07:43:59.685Z,24.13
2023-10-03T07:46:31.278Z,24.23
2023-10-03T07:49:04.001Z,24.22
2023-10-03T07:51:35.946Z,24.21
2023-10-03T07:54:08.375Z,24.32
2023-10-03T07:56:44.074Z,24.48
2023-10-03T07:59:16.155Z,24.73
2023-10-03T08:02:00.314Z,24.80
2023-10-03T08:04:34.391Z,24.81
2023-10-03T08:07:07.124Z,24.83
2023-10-03T08:09:39.127Z,24.83
2023-10-03T08:12:14.211Z,24.81
2023-10-03T08:14:46.007Z,24.84
2023-10-03T08:17:17.697Z,24.96
2023-10-03T08:19:50.983Z,25.08
2023-10-03T08:22:22.881Z,25.32
2023-10-03T08:24:54.565Z,25.46
2023-10-03T08:27:31.725Z,25.51
2023-10-03T08:30:05.202Z,25.49
2023-10-03T08:32:41.659Z,25.44
2023-10-03T08:35:14.333Z,25.38
2023-10-03T08:37:46.423Z,25.42
2023-10-03T08:40:24.509Z,25.42
2023-10-03T08:42:58.191Z,25.49
2023-10-03T08:45:30.453Z,25.42
2023-10-03T08:48:26.531Z,25.37
2023-10-03T08:51:02.841Z,25.34
2023-10-03T08:53:35.768Z,25.35
2023-10-03T08:56:09.981Z,25.48
2023-10-03T08:58:50.049Z,25.60
2023-10-03T09:01:23.457Z,25.63
2023-10-03T09:04:01.437Z,25.66
2023-10-03T09:06:41.234Z,25.63
2023-10-03T09:09:15.513Z,25.63
2023-10-03T09:11:53.239Z,25.71
2023-10-03T09:14:25.719Z,25.80
2023-10-03T09:17:01.861Z,25.89
2023-10-03T09:19:48.011Z,26.01
2023-10-03T09:22:33.642Z,25.99
2023-10-03T09:25:08.956Z,25.97
2023-10-03T09:27:40.835Z,26.03
2023-10-03T09:30:24.516Z,26.11
2023-10-03T09:32:58.908Z,26.19
2023-10-03T09:35:31.860Z,26.16
2023-10-03T09:38:07.702Z,26.22
2023-10-03T09:40:53.272Z,26.23
2023-10-03T09:43:28.952Z,26.24
2023-10-03T09:46:01.908Z,26.34
2023-10-03T09:48:34.588Z,26.37
2023-10-03T09:51:08.770Z,26.23
2023-10-03T09:53:43.584Z,26.22
2023-10-03T09:56:25.274Z,26.23
2023-10-03T09:59:00.809Z,26.20
2023-10-03T10:01:34.771Z,26.19
2023-10-03T10:04:10.320Z,26.14
2023-10-03T10:06:49.817Z,26.24
2023-10-03T10:09:31.285Z,26.42
2023-10-03T10:12:20.065Z,26.55
2023-10-03T10:15:28.315Z,26.66
2023-10-03T10:18:00.329Z,26.79
2023-10-03T10:20:39.303Z,26.78
2023-10-03T10:23:22.237Z,26.62
2023-10-03T10:26:00.137Z,26.58
2023-10-03T10:28:35.762Z,26.55
2023-10-03T10:31:31.777Z,26.55
2023-10-03T10:34:50.140Z,26.60
2023-10-03T10:37:24.072Z,26.72
2023-10-03T10:40:19.016Z,26.80
2023-10-03T10:43:08.449Z,26.90
2023-10-03T10:45:44.888Z,27.00
2023-10-03T10:48:21.376Z,27.06
2023-10-03T10:51:14.503Z,26.98
2023-10-03T10:53:48.910Z,27.10
2023-10-03T10:56:21.031Z,27.14
2023-10-03T10:58:55.299Z,27.09
2023-10-03T11:01:28.325Z,27.03
2023-10-03T11:04:01.200Z,27.03
2023-10-03T11:06:32.998Z,27.29
2023-10-03T11:09:06.555Z,27.47
2023-10-03T11:11:42.906Z,27.56
2023-10-03T11:14:15.063Z,27.61
2023-10-03T11:16:50.065Z,27.59
2023-10-03T11:19:22.357Z,27.54
2023-10-03T11:21:55.428Z,27.38
2023-10-03T11:24:28.244Z,27.41
2023-10-03T11:27:00.484Z,27.57
2023-10-03T11:29:45.112Z,27.65
2023-10-03T11:32:30.129Z,27.70
2023-10-03T11:35:17.583Z,27.60
2023-10-03T11:37:52.756Z,27.49
2023-10-03T11:40:30.528Z,27.46
2023-10-03T11:43:09.700Z,27.44
2023-10-03T11:45:41.801Z,27.27
2023-10-03T11:48:20.752Z,27.07
2023-10-03T11:50:52.594Z,27.01
2023-10-03T11:53:24.386Z,26.99
2023-10-03T11:55:57.904Z,27.09
2023-10-03T11:58:29.707Z,27.08
2023-10-03T12:01:01.492Z,27.15
2023-10-03T12:03:33.515Z,27.21
2023-10-03T12:06:05.865Z,27.33
2023-10-03T12:08:42.499Z,27.47
2023-10-03T12:11:16.849Z,27.53
2023-10-03T12:13:48.429Z,27.67
2023-10-03T12:16:22.020Z,27.83
2023-10-03T12:18:53.804Z,27.83
2023-10-03T12:21:25.755Z,28.00
2023-10-03T12:23:57.436Z,28.10
2023-10-03T12:26:29.126Z,28.22
2023-10-03T12:29:05.989Z,28.32
2023-10-03T12:31:38.193Z,28.35
2023-10-03T12:34:09.958Z,28.27
2023-10-03T12:36:41.611Z,28.30
2023-10-03T12:39:13.439Z,28.34
2023-10-03T12:41:48.765Z,28.24
2023-10-03T12:44:22.233Z,28.26
2023-10-03T12:46:53.906Z,28.28
2023-10-03T12:49:25.390Z,28.26
2023-10-03T12:51:58.993Z,28.30
2023-10-03T12:54:30.712Z,28.16
2023-10-03T12:57:02.413Z,28.09
2023-10-03T12:59:35.459Z,28.11
2023-10-03T13:02:07.598Z,28.14
2023-10-03T13:04:39.232Z,28.09
2023-10-03T13:07:13.486Z,28.21
2023-10-03T13:09:46.089Z,28.39
2023-10-03T13:12:17.774Z,28.39
2023-10-03T13:14:49.691Z,28.43
2023-10-03T13:17:22.226Z,28.52
2023-10-03T13:19:54.072Z,28.49
2023-10-03T13:22:27.421Z,28.56
2023-10-03T13:24:59.103Z,28.60
2023-10-03T13:27:31.145Z,28.57
2023-10-03T13:30:05.021Z,28.53
2023-10-03T13:32:38.010Z,28.53
2023-10-03T13:35:14.945Z,28.41
2023-10-03T13:37:46.702Z,28.32
2023-10-03T13:40:18.905Z,28.28
2023-10-03T13:42:51.121Z,28.19
2023-10-03T13:45:22.884Z,28.23
2023-10-03T13:47:57.342Z,28.23
2023-10-03T13:50:30.303Z,28.29
2023-10-03T13:53:02.014Z,28.35
2023-10-03T13:55:34.478Z,28.38
2023-10-03T13:58:06.586Z,28.40
2023-10-03T14:00:38.149Z,28.35
2023-10-03T14:03:10.808Z,28.31
2023-10-03T14:05:47.009Z,28.27
2023-10-03T14:08:18.701Z,28.19
2023-10-03T14:10:50.840Z,28.17
2023-10-03T14:13:22.255Z,28.24
2023-10-03T14:15:53.754Z,28.15
2023-10-03T14:18:25.605Z,28.05
2023-10-03T14:20:59.852Z,28.01
2023-10-03T14:23:33.430Z,28.04
2023-10-03T14:26:06.382Z,28.03
2023-10-03T14:28:38.725Z,28.14
2023-10-03T14:31:12.126Z,28.20
2023-10-03T14:33:44.691Z,28.18
2023-10-03T14:36:18.959Z,28.19
2023-10-03T14:38:49.872Z,28.07
2023-10-03T14:41:21.813Z,28.05
2023-10-03T14:43:54.823Z,28.09
2023-10-03T14:46:27.600Z,28.07
2023-10-03T14:48:59.350Z,27.89
2023-10-03T14:51:32.507Z,27.86
2023-10-03T14:54:04.349Z,27.75
2023-10-03T14:56:37.153Z,27.56
2023-10-03T14:59:08.989Z,27.47
2023-10-03T15:01:40.735Z,27.30
2023-10-03T15:04:12.407Z,27.37
2023-10-03T15:06:44.417Z,27.48
2023-10-03T15:09:16.173Z,27.38
2023-10-03T15:11:49.940Z,27.38
2023-10-03T15:14:26.152Z,27.38
2023-10-03T15:16:59.373Z,27.34
2023-10-03T15:19:31.227Z,27.26
2023-10-03T15:22:02.993Z,27.12
2023-10-03T15:24:34.826Z,27.01
2023-10-03T15:27:06.988Z,27.06
2023-10-03T15:29:39.007Z,27.11
2023-10-03T15:32:12.374Z,27.07
2023-10-03T15:34:52.382Z,26.87
2023-10-03T15:37:24.744Z,26.75
2023-10-03T15:39:57.986Z,26.64
2023-10-03T15:42:31.135Z,26.60
2023-10-03T15:47:45.501Z,26.59
2023-10-03T15:50:18.089Z,26.59
2023-10-03T15:52:51.532Z,26.47
2023-10-03T15:55:23.299Z,26.35
2023-10-03T15:57:55.057Z,26.14
2023-10-03T16:00:28.198Z,26.16
2023-10-03T16:03:00.762Z,26.12
2023-10-03T16:05:33.270Z,26.19
2023-10-03T16:08:08.643Z,26.09
2023-10-03T16:10:43.530Z,26.08
2023-10-03T16:13:19.581Z,26.04
2023-10-03T16:15:51.917Z,25.98
2023-10-03T16:18:24.140Z,26.02
2023-10-03T16:20:55.963Z,26.00
2023-10-03T16:23:28.269Z,25.98
2023-10-03T16:26:03.044Z,25.85
2023-10-03T16:28:38.697Z,25.78
2023-10-03T16:31:11.807Z,25.71
2023-10-03T16:33:45.263Z,25.67
2023-10-03T16:36:18.823Z,25.73
2023-10-03T16:38:52.703Z,25.70
2023-10-03T16:41:25.940Z,25.69
2023-10-03T16:43:58.028Z,25.62
2023-10-03T16:46:31.534Z,25.55
2023-10-03T16:49:08.061Z,25.58
2023-10-03T16:51:51.658Z,25.68
2023-10-03T16:54:34.377Z,25.73
2023-10-03T16:57:19.720Z,25.68
2023-10-03T17:00:20.215Z,25.60
2023-10-03T17:03:17.157Z,25.53
2023-10-03T17:06:11.836Z,25.56
2023-10-03T17:09:00.223Z,25.57
2023-10-03T17:11:46.297Z,25.45
2023-10-03T17:14:29.476Z,25.41
2023-10-03T17:17:11.224Z,25.38
2023-10-03T17:19:54.496Z,25.32
2023-10-03T17:22:39.629Z,25.09
2023-10-03T17:25:21.169Z,24.85
2023-10-03T17:27:57.511Z,24.82
2023-10-03T17:30:39.435Z,24.84
2023-10-03T17:33:22.312Z,24.75
2023-10-03T17:36:03.736Z,24.72
2023-10-03T17:38:50.185Z,24.66
2023-10-03T17:41:44.018Z,24.56
2023-10-03T17:44:24.611Z,24.59
2023-10-03T17:47:03.878Z,24.69
2023-10-03T17:49:41.610Z,24.62
2023-10-03T17:52:21.734Z,24.53
2023-10-03T17:55:02.154Z,24.48
2023-10-03T17:57:43.283Z,24.35
2023-10-03T18:00:26.245Z,24.31
2023-10-03T18:03:06.066Z,24.41
2023-10-03T18:05:45.715Z,24.41
2023-10-03T18:08:24.752Z,24.36
2023-10-03T18:11:08.523Z,24.35
2023-10-03T18:13:47.421Z,24.34
2023-10-03T18:16:31.062Z,24.23
2023-10-03T18:19:16.555Z,24.14
2023-10-03T18:21:58.905Z,24.09
2023-10-03T18:24:38.570Z,24.09
2023-10-03T18:27:15.696Z,24.16
2023-10-03T18:29:59.050Z,24.09
2023-10-03T18:32:36.355Z,23.99
2023-10-03T18:35:22.672Z,24.01
2023-10-03T18:38:01.538Z,24.00
2023-10-03T18:40:41.063Z,24.08
2023-10-03T18:43:26.956Z,24.07
2023-10-03T18:46:04.194Z,23.99
2023-10-03T18:48:37.678Z,23.84
2023-10-03T18:51:13.403Z,23.84
2023-10-03T18:53:51.047Z,23.87
2023-10-03T18:56:28.834Z,23.83
2023-10-03T18:59:07.836Z,23.86
2023-10-03T19:01:52.080Z,23.80
2023-10-03T19:04:30.874Z,23.72
2023-10-03T19:07:15.416Z,23.65
2023-10-03T19:10:00.214Z,23.66
2023-10-03T19:12:36.913Z,23.63
2023-10-03T19:15:14.535Z,23.70
2023-10-03T19:17:55.564Z,23.82
2023-10-03T19:20:31.819Z,23.82
2023-10-03T19:23:19.065Z,23.67
2023-10-03T19:25:59.305Z,23.51
2023-10-03T19:28:46.213Z,23.49
2023-10-03T19:31:20.829Z,23.58
2023-10-03T19:33:58.250Z,23.66
2023-10-03T19:36:35.279Z,23.63
2023-10-03T19:39:18.739Z,23.47
2023-10-03T19:42:06.791Z,23.34
2023-10-03T19:44:40.613Z,23.33
2023-10-03T19:47:20.433Z,23.26
2023-10-03T19:50:09.787Z,23.24
2023-10-03T19:52:49.091Z,23.16
2023-10-03T19:55:30.509Z,23.12
2023-10-03T19:58:28.976Z,23.02
2023-10-03T20:01:03.604Z,23.01
2023-10-03T20:03:41.591Z,23.09
2023-10-03T20:06:19.909Z,23.18
2023-10-03T20:09:06.389Z,23.25
2023-10-03T20:11:40.061Z,23.13
2023-10-03T20:14:15.846Z,23.02
2023-10-03T20:16:52.872Z,22.98
2023-10-03T20:19:29.744Z,22.97
2023-10-03T20:22:06.523Z,22.98
2023-10-03T20:24:43.170Z,22.96
2023-10-03T20:27:20.512Z,22.96
2023-10-03T20:29:54.517Z,22.90
2023-10-03T20:32:29.076Z,22.91
2023-10-03T20:35:05.761Z,22.97
2023-10-03T20:37:41.812Z,23.01
2023-10-03T20:40:17.408Z,23.00
2023-10-03T20:42:52.183Z,23.02
2023-10-03T20:45:24.112Z,22.86
2023-10-03T20:47:55.975Z,22.70
2023-10-03T20:50:30.076Z,22.68
2023-10-03T20:53:04.762Z,22.69
2023-10-03T20:55:40.044Z,22.67
2023-10-03T20:58:14.420Z,22.73
2023-10-03T21:00:44.629Z,22.68
2023-10-03T21:03:19.352Z,22.67
2023-10-03T21:05:51.861Z,22.63
2023-10-03T21:08:24.603Z,22.63
2023-10-03T21:10:56.462Z,22.63
2023-10-03T21:13:28.105Z,22.64
2023-10-03T21:15:59.567Z,22.78
2023-10-03T21:18:31.014Z,22.91
2023-10-03T21:21:03.387Z,22.97
2023-10-03T21:23:34.933Z,22.90
2023-10-03T21:26:12.591Z,22.87
2023-10-03T21:28:44.250Z,22.79
2023-10-03T21:31:16.698Z,22.58
2023-10-03T21:33:48.270Z,22.34
2023-10-03T21:36:23.985Z,21.99
2023-10-03T21:38:55.714Z,21.65
2023-10-03T21:41:27.452Z,21.42
2023-10-03T21:43:58.898Z,21.30
2023-10-03T21:46:31.898Z,21.18
2023-10-03T21:49:03.517Z,21.08
2023-10-03T21:51:35.281Z,21.00
2023-10-03T21:54:07.550Z,20.78
2023-10-03T21:56:39.738Z,20.63
2023-10-03T21:59:11.188Z,20.68
2023-10-03T22:01:43.438Z,20.59
2023-10-03T22:04:14.963Z,20.51
2023-10-03T22:06:46.747Z,20.34
2023-10-03T22:09:19.154Z,20.20
2023-10-03T22:11:52.017Z,20.13
2023-10-03T22:14:23.895Z,19.99
2023-10-03T22:16:55.350Z,19.90
2023-10-03T22:19:26.841Z,19.82
2023-10-03T22:21:58.283Z,19.78
2023-10-03T22:24:29.998Z,19.74
2023-10-03T22:27:01.576Z,19.60
2023-10-03T22:29:33.191Z,19.55
2023-10-03T22:32:04.726Z,19.50
2023-10-03T22:34:36.389Z,19.37
2023-10-03T22:37:07.992Z,19.24
2023-10-03T22:39:39.329Z,19.12
2023-10-03T22:42:10.752Z,19.14
2023-10-03T22:44:43.634Z,19.13
2023-10-03T22:47:16.035Z,19.18
2023-10-03T22:49:47.644Z,19.15
2023-10-03T22:52:19.168Z,19.12
2023-10-03T22:54:50.845Z,18.96
2023-10-03T22:57:22.567Z,18.82
2023-10-03T22:59:54.299Z,18.77
2023-10-03T23:02:25.703Z,18.81
2023-10-03T23:04:57.803Z,18.84
2023-10-03T23:07:29.412Z,18.83
2023-10-03T23:10:01.187Z,18.89
2023-10-03T23:12:32.834Z,18.90
2023-10-03T23:15:04.517Z,18.98
2023-10-03T23:17:36.367Z,19.00
2023-10-03T23:20:09.713Z,18.98
2023-10-03T23:22:41.336Z,18.82
2023-10-03T23:25:15.287Z,18.77
2023-10-03T23:27:49.076Z,18.67
2023-10-03T23:30:20.771Z,18.59
2023-10-03T23:32:54.572Z,18.54
2023-10-03T23:35:26.098Z,18.50
2023-10-03T23:37:57.780Z,18.50
2023-10-03T23:40:29.272Z,18.52
2023-10-03T23:43:00.721Z,18.51
2023-10-03T23:45:32.616Z,18.44
2023-10-03T23:48:04.468Z,18.36
2023-10-03T23:50:36.831Z,18.38
2023-10-03T23:53:08.312Z,18.38
2023-10-03T23:55:42.419Z,18.39
2023-10-03T23:58:14.386Z,18.20
